createdAt,value
2017-12-19T00:00:28.777Z,17.90
2017-12-19T00:02:55.056Z,18.93
2017-12-19T00:05:21.376Z,23.50
2017-12-19T00:07:47.753Z,22.73
2017-12-19T00:10:13.977Z,21.10
2017-12-19T00:12:40.301Z,19.63
2017-12-19T00:15:07.311Z,19.90
2017-12-19T00:17:33.591Z,19.90
2017-12-19T00:19:59.860Z,20.23
2017-12-19T00:22:38.303Z,18.57
2017-12-19T00:25:06.087Z,18.10
2017-12-19T00:27:32.385Z,19.37
2017-12-19T00:29:58.727Z,19.57
2017-12-19T00:32:25.028Z,20.47
2017-12-19T00:34:51.329Z,18.20
2017-12-19T00:37:17.640Z,16.67
2017-12-19T00:39:44.624Z,20.63
2017-12-19T00:42:10.910Z,18.33
2017-12-19T00:44:37.914Z,18.80
2017-12-19T00:47:04.150Z,17.33
2017-12-19T00:49:30.472Z,17.27
2017-12-19T00:51:56.742Z,18.97
2017-12-19T00:54:23.763Z,21.03
2017-12-19T00:56:50.054Z,21.27
2017-12-19T00:59:17.310Z,20.07
2017-12-19T01:01:43.612Z,22.03
2017-12-19T01:04:10.636Z,18.27
2017-12-19T01:06:38.153Z,21.00
2017-12-19T01:09:04.425Z,21.77
2017-12-19T01:11:30.715Z,18.93
2017-12-19T01:13:56.958Z,17.73
2017-12-19T01:16:23.277Z,23.40
2017-12-19T01:18:49.673Z,24.50
2017-12-19T01:21:16.790Z,21.27
2017-12-19T01:23:43.078Z,20.87
2017-12-19T01:26:09.382Z,22.43
2017-12-19T01:28:36.570Z,20.23
2017-12-19T01:31:02.895Z,22.20
2017-12-19T01:33:29.160Z,23.70
2017-12-19T01:35:55.473Z,21.90
2017-12-19T01:38:21.723Z,19.40
2017-12-19T01:40:48.025Z,24.53
2017-12-19T01:43:14.277Z,21.83
2017-12-19T01:45:40.545Z,23.17
2017-12-19T01:48:07.552Z,21.50
2017-12-19T01:50:33.870Z,18.23
2017-12-19T01:53:00.244Z,19.40
2017-12-19T01:55:27.248Z,20.00
2017-12-19T01:57:53.551Z,19.20
2017-12-19T02:00:19.794Z,20.40
2017-12-19T02:02:46.121Z,14.50
2017-12-19T02:05:12.492Z,19.63
2017-12-19T02:07:46.603Z,19.47
2017-12-19T02:10:12.878Z,18.50
2017-12-19T02:12:39.131Z,20.27
2017-12-19T02:15:05.445Z,18.13
2017-12-19T02:17:31.746Z,17.90
2017-12-19T02:19:58.036Z,22.00
2017-12-19T02:22:24.342Z,21.00
2017-12-19T02:24:50.593Z,17.17
2017-12-19T02:27:16.856Z,27.23
2017-12-19T02:29:44.644Z,17.07
2017-12-19T02:32:11.675Z,22.80
2017-12-19T02:34:37.968Z,21.30
2017-12-19T02:37:04.231Z,20.30
2017-12-19T02:39:30.541Z,24.00
2017-12-19T02:41:56.839Z,18.67
2017-12-19T02:44:23.207Z,21.80
2017-12-19T02:46:49.506Z,19.83
2017-12-19T02:49:15.858Z,20.50
2017-12-19T02:51:42.232Z,19.10
2017-12-19T02:54:10.236Z,21.93
2017-12-19T02:56:36.537Z,20.93
2017-12-19T02:59:03.561Z,30.77
2017-12-19T03:01:29.847Z,18.10
2017-12-19T03:03:56.096Z,19.70
2017-12-19T03:06:22.374Z,19.23
2017-12-19T03:08:49.376Z,23.30
2017-12-19T03:11:15.704Z,19.93
2017-12-19T03:13:42.030Z,23.80
2017-12-19T03:16:08.394Z,20.90
2017-12-19T03:18:34.672Z,17.60
2017-12-19T03:21:00.948Z,20.57
2017-12-19T03:23:27.269Z,22.37
2017-12-19T03:25:53.527Z,19.43
2017-12-19T03:28:20.494Z,19.93
2017-12-19T03:30:46.787Z,20.00
2017-12-19T03:33:13.104Z,19.97
2017-12-19T03:35:39.370Z,20.30
2017-12-19T03:38:07.429Z,19.53
2017-12-19T03:40:34.086Z,18.30
2017-12-19T03:43:01.089Z,23.10
2017-12-19T03:45:27.432Z,21.53
2017-12-19T03:47:53.691Z,23.33
2017-12-19T03:50:20.723Z,20.37
2017-12-19T03:52:47.742Z,17.10
2017-12-19T03:55:14.081Z,24.13
2017-12-19T03:57:40.360Z,19.20
2017-12-19T04:00:06.674Z,20.33
2017-12-19T04:02:33.698Z,22.53
2017-12-19T04:05:00.028Z,26.30
2017-12-19T04:07:26.378Z,22.23
2017-12-19T04:09:52.659Z,21.07
2017-12-19T04:12:19.104Z,23.07
2017-12-19T04:14:45.340Z,25.97
2017-12-19T04:17:11.620Z,19.27
2017-12-19T04:19:37.808Z,28.23
2017-12-19T04:22:04.078Z,29.33
2017-12-19T04:24:30.360Z,27.27
2017-12-19T04:26:56.621Z,26.17
2017-12-19T04:29:22.998Z,23.10
2017-12-19T04:31:49.268Z,26.50
2017-12-19T04:34:15.584Z,26.93
2017-12-19T04:36:41.876Z,27.90
2017-12-19T04:39:08.332Z,23.90
2017-12-19T04:41:34.633Z,22.60
2017-12-19T04:44:00.887Z,23.10
2017-12-19T04:46:27.261Z,19.13
2017-12-19T04:48:53.497Z,24.40
2017-12-19T04:51:19.819Z,22.17
2017-12-19T04:53:46.135Z,23.50
2017-12-19T04:56:12.404Z,22.43
2017-12-19T04:58:39.463Z,25.57
2017-12-19T05:01:05.766Z,29.30
2017-12-19T05:03:32.061Z,26.67
2017-12-19T05:05:58.358Z,24.43
2017-12-19T05:08:24.655Z,33.50
2017-12-19T05:10:50.892Z,30.93
2017-12-19T05:13:17.950Z,30.67
2017-12-19T05:15:44.987Z,31.77
2017-12-19T05:18:12.041Z,28.87
2017-12-19T05:20:38.372Z,31.90
2017-12-19T05:23:05.452Z,29.93
2017-12-19T05:25:31.730Z,30.27
2017-12-19T05:27:58.014Z,27.93
2017-12-19T05:30:24.314Z,25.33
2017-12-19T05:32:51.307Z,23.37
2017-12-19T05:35:17.754Z,20.97
2017-12-19T05:37:44.275Z,19.00
2017-12-19T05:40:10.565Z,18.37
2017-12-19T05:42:37.707Z,23.17
2017-12-19T05:45:04.942Z,27.50
2017-12-19T05:47:31.399Z,27.33
2017-12-19T05:49:58.475Z,30.00
2017-12-19T05:52:24.797Z,36.73
2017-12-19T05:54:51.161Z,31.90
2017-12-19T05:57:17.427Z,34.10
2017-12-19T05:59:44.496Z,35.37
2017-12-19T06:02:10.843Z,34.57
2017-12-19T06:04:37.104Z,32.77
2017-12-19T06:07:03.373Z,33.57
2017-12-19T06:09:30.458Z,36.30
2017-12-19T06:11:56.836Z,35.13
2017-12-19T06:14:23.958Z,34.80
2017-12-19T06:16:50.285Z,35.53
2017-12-19T06:19:16.574Z,36.87
2017-12-19T06:21:42.896Z,32.73
2017-12-19T06:24:09.912Z,36.87
2017-12-19T06:26:36.173Z,33.17
2017-12-19T06:29:03.349Z,33.40
2017-12-19T06:31:29.617Z,32.60
2017-12-19T06:33:55.861Z,35.30
2017-12-19T06:36:22.119Z,34.60
2017-12-19T06:38:49.167Z,34.90
2017-12-19T06:41:15.500Z,34.73
2017-12-19T06:43:42.529Z,34.17
2017-12-19T06:46:08.838Z,35.30
2017-12-19T06:48:35.098Z,31.93
2017-12-19T06:51:02.295Z,31.57
2017-12-19T06:53:28.596Z,33.53
2017-12-19T06:55:54.889Z,30.43
2017-12-19T06:58:21.155Z,32.97
2017-12-19T07:00:47.461Z,30.13
2017-12-19T07:03:14.508Z,35.50
2017-12-19T07:05:40.796Z,32.33
2017-12-19T07:08:07.052Z,34.47
2017-12-19T07:10:33.320Z,37.60
2017-12-19T07:13:00.395Z,33.83
2017-12-19T07:15:27.069Z,34.50
2017-12-19T07:17:53.372Z,33.27
2017-12-19T07:20:20.011Z,45.00
2017-12-19T07:22:46.434Z,39.07
2017-12-19T07:25:12.642Z,35.07
2017-12-19T07:27:39.085Z,39.97
2017-12-19T07:30:05.389Z,45.30
2017-12-19T07:32:32.417Z,54.60
2017-12-19T07:34:58.779Z,49.80
2017-12-19T07:37:25.897Z,51.93
2017-12-19T07:39:52.240Z,42.20
2017-12-19T07:42:18.642Z,37.07
2017-12-19T07:44:44.940Z,33.80
2017-12-19T07:47:11.239Z,39.57
2017-12-19T07:49:38.240Z,39.33
2017-12-19T07:52:04.558Z,40.13
2017-12-19T07:54:30.862Z,40.93
2017-12-19T07:56:57.922Z,39.73
2017-12-19T07:59:24.196Z,36.40
2017-12-19T08:01:50.493Z,38.07
2017-12-19T08:04:16.809Z,44.57
2017-12-19T08:06:43.143Z,47.20
2017-12-19T08:09:09.440Z,40.83
2017-12-19T08:11:35.784Z,55.73
2017-12-19T08:14:02.800Z,46.10
2017-12-19T08:16:29.147Z,40.03
2017-12-19T08:18:55.373Z,47.50
2017-12-19T08:21:21.672Z,42.70
2017-12-19T08:23:47.958Z,45.93
2017-12-19T08:26:14.987Z,51.17
2017-12-19T08:28:41.317Z,49.00
2017-12-19T08:31:07.608Z,50.60
2017-12-19T08:33:34.020Z,49.43
2017-12-19T08:36:00.277Z,52.50
2017-12-19T08:38:26.550Z,35.00
2017-12-19T08:40:52.853Z,43.40
2017-12-19T08:43:19.145Z,25.23
2017-12-19T08:45:45.393Z,27.00
2017-12-19T08:48:11.719Z,24.03
2017-12-19T08:50:37.959Z,21.87
2017-12-19T08:53:04.462Z,22.47
2017-12-19T08:55:30.771Z,27.03
2017-12-19T08:57:57.841Z,23.53
2017-12-19T09:00:24.108Z,23.00
2017-12-19T09:02:50.481Z,23.90
2017-12-19T09:05:17.727Z,22.37
2017-12-19T09:07:43.988Z,23.87
2017-12-19T09:10:10.368Z,20.83
2017-12-19T09:12:36.670Z,21.50
2017-12-19T09:15:02.986Z,23.77
2017-12-19T09:17:29.224Z,21.73
2017-12-19T09:19:55.514Z,22.63
2017-12-19T09:22:22.531Z,23.30
2017-12-19T09:24:48.760Z,23.60
2017-12-19T09:27:15.048Z,22.33
2017-12-19T09:29:41.324Z,28.00
2017-12-19T09:32:07.549Z,23.73
2017-12-19T09:34:33.829Z,20.13
2017-12-19T09:37:00.813Z,21.60
2017-12-19T09:39:34.005Z,21.57
2017-12-19T09:42:00.255Z,25.07
2017-12-19T09:44:26.574Z,22.10
2017-12-19T09:46:52.866Z,20.30
2017-12-19T09:49:19.122Z,21.77
2017-12-19T09:51:45.388Z,21.97
2017-12-19T09:54:11.656Z,21.67
2017-12-19T09:56:37.910Z,23.93
2017-12-19T09:59:04.176Z,20.90
2017-12-19T10:01:30.492Z,21.17
2017-12-19T10:03:56.756Z,24.60
2017-12-19T10:06:23.732Z,21.40
2017-12-19T10:08:50.034Z,22.87
2017-12-19T10:11:17.053Z,22.37
2017-12-19T10:13:43.329Z,23.77
2017-12-19T10:16:09.617Z,22.57
2017-12-19T10:18:35.867Z,20.80
2017-12-19T10:21:02.915Z,24.40
2017-12-19T10:23:29.924Z,28.40
2017-12-19T10:25:56.217Z,23.93
2017-12-19T10:28:22.496Z,23.50
2017-12-19T10:30:48.789Z,22.07
2017-12-19T10:33:15.119Z,24.30
2017-12-19T10:35:41.363Z,23.30
2017-12-19T10:38:07.653Z,22.03
2017-12-19T10:40:34.702Z,20.87
2017-12-19T10:43:01.729Z,26.20
2017-12-19T10:45:28.056Z,29.20
2017-12-19T10:47:54.380Z,25.13
2017-12-19T10:50:20.756Z,23.87
2017-12-19T10:52:47.075Z,21.40
2017-12-19T10:55:14.074Z,22.30
2017-12-19T10:57:40.332Z,23.60
2017-12-19T11:00:06.584Z,29.20
2017-12-19T11:02:33.634Z,21.37
2017-12-19T11:04:59.870Z,22.40
2017-12-19T11:07:26.148Z,22.40
2017-12-19T11:09:52.422Z,24.10
2017-12-19T11:12:18.745Z,25.20
2017-12-19T11:14:45.761Z,24.60
2017-12-19T11:17:12.125Z,26.97
2017-12-19T11:19:38.383Z,24.90
2017-12-19T11:22:04.608Z,22.53
2017-12-19T11:24:30.917Z,25.93
2017-12-19T11:26:57.995Z,26.57
2017-12-19T11:29:24.335Z,25.73
2017-12-19T11:31:50.609Z,27.20
2017-12-19T11:34:16.945Z,23.83
2017-12-19T11:36:43.990Z,27.20
2017-12-19T11:39:11.088Z,28.43
2017-12-19T11:41:37.456Z,34.53
2017-12-19T11:44:03.737Z,23.70
2017-12-19T11:46:29.982Z,28.10
2017-12-19T11:48:56.290Z,23.60
2017-12-19T11:51:22.596Z,28.80
2017-12-19T11:53:49.634Z,26.40
2017-12-19T11:56:16.636Z,27.47
2017-12-19T11:58:42.989Z,27.53
2017-12-19T12:01:09.316Z,29.13
2017-12-19T12:03:35.600Z,29.83
2017-12-19T12:06:02.618Z,30.20
2017-12-19T12:08:28.852Z,29.27
2017-12-19T12:10:55.144Z,27.43
2017-12-19T12:13:21.407Z,30.00
2017-12-19T12:15:47.856Z,29.20
2017-12-19T12:18:15.082Z,29.60
2017-12-19T12:20:41.313Z,30.53
2017-12-19T12:23:07.577Z,29.00
2017-12-19T12:25:34.629Z,30.50
2017-12-19T12:28:00.917Z,29.37
2017-12-19T12:30:27.161Z,29.23
2017-12-19T12:32:53.461Z,27.47
2017-12-19T12:35:19.755Z,29.60
2017-12-19T12:37:46.061Z,28.10
2017-12-19T12:40:13.052Z,30.30
2017-12-19T12:42:39.329Z,29.70
2017-12-19T12:45:05.660Z,27.17
2017-12-19T12:47:31.944Z,32.47
2017-12-19T12:49:58.201Z,28.10
2017-12-19T12:52:24.474Z,34.70
2017-12-19T12:54:51.514Z,31.20
2017-12-19T12:57:19.205Z,28.83
2017-12-19T12:59:45.486Z,28.00
2017-12-19T13:02:11.814Z,27.57
2017-12-19T13:04:38.109Z,27.40
2017-12-19T13:07:04.394Z,30.67
2017-12-19T13:09:31.446Z,26.20
2017-12-19T13:11:58.481Z,25.77
2017-12-19T13:14:25.530Z,24.07
2017-12-19T13:16:51.849Z,26.00
2017-12-19T13:19:18.193Z,24.40
2017-12-19T13:21:45.237Z,24.97
2017-12-19T13:24:12.889Z,25.37
2017-12-19T13:26:39.185Z,27.73
2017-12-19T13:29:05.466Z,24.60
2017-12-19T13:31:32.568Z,28.03
2017-12-19T13:33:58.828Z,27.23
2017-12-19T13:36:25.156Z,25.97
2017-12-19T13:38:51.458Z,26.37
2017-12-19T13:41:17.765Z,25.83
2017-12-19T13:43:44.049Z,26.37
2017-12-19T13:46:10.276Z,24.60
2017-12-19T13:48:36.532Z,25.07
2017-12-19T13:51:03.556Z,26.63
2017-12-19T13:53:29.812Z,28.33
2017-12-19T13:55:56.820Z,32.90
2017-12-19T13:58:24.037Z,27.03
2017-12-19T14:00:50.329Z,32.47
2017-12-19T14:03:16.651Z,30.53
2017-12-19T14:05:43.961Z,27.63
2017-12-19T14:08:10.237Z,27.40
2017-12-19T14:10:36.573Z,31.10
2017-12-19T14:13:02.907Z,29.30
2017-12-19T14:15:29.189Z,27.93
2017-12-19T14:17:55.539Z,31.23
2017-12-19T14:20:21.874Z,28.27
2017-12-19T14:22:48.147Z,30.37
2017-12-19T14:25:14.404Z,28.07
2017-12-19T14:27:40.678Z,30.97
2017-12-19T14:30:06.952Z,28.67
2017-12-19T14:32:33.238Z,27.50
2017-12-19T14:34:59.551Z,27.80
2017-12-19T14:37:25.882Z,28.83
2017-12-19T14:39:52.132Z,27.33
2017-12-19T14:42:18.452Z,28.53
2017-12-19T14:44:45.232Z,31.40
2017-12-19T14:47:11.510Z,31.80
2017-12-19T14:49:37.778Z,33.20
2017-12-19T14:52:04.075Z,32.80
2017-12-19T14:54:30.410Z,32.93
2017-12-19T14:56:56.675Z,31.90
2017-12-19T14:59:23.788Z,34.70
2017-12-19T15:01:50.128Z,38.10
2017-12-19T15:04:16.457Z,36.03
2017-12-19T15:06:42.739Z,34.67
2017-12-19T15:09:09.011Z,26.60
2017-12-19T15:11:35.285Z,32.00
2017-12-19T15:14:02.311Z,34.87
2017-12-19T15:16:28.617Z,32.53
2017-12-19T15:18:54.853Z,34.43
2017-12-19T15:21:21.177Z,28.83
2017-12-19T15:23:48.257Z,35.97
2017-12-19T15:26:15.277Z,31.03
2017-12-19T15:28:41.599Z,32.27
2017-12-19T15:31:07.881Z,37.10
2017-12-19T15:33:34.160Z,32.37
2017-12-19T15:36:00.463Z,29.50
2017-12-19T15:38:26.788Z,32.77
2017-12-19T15:40:53.039Z,36.33
2017-12-19T15:43:19.319Z,31.00
2017-12-19T15:45:46.418Z,35.67
2017-12-19T15:48:14.502Z,29.20
2017-12-19T15:50:40.803Z,30.33
2017-12-19T15:53:07.119Z,32.27
2017-12-19T15:55:33.377Z,28.60
2017-12-19T15:57:59.672Z,30.23
2017-12-19T16:00:26.652Z,37.10
2017-12-19T16:02:52.969Z,27.63
2017-12-19T16:05:19.261Z,26.80
2017-12-19T16:07:45.541Z,27.00
2017-12-19T16:10:11.853Z,24.47
2017-12-19T16:12:38.123Z,29.53
2017-12-19T16:15:04.549Z,27.57
2017-12-19T16:17:30.901Z,29.80
2017-12-19T16:19:57.563Z,27.00
2017-12-19T16:22:24.244Z,28.30
2017-12-19T16:24:50.534Z,28.40
2017-12-19T16:27:17.907Z,23.93
2017-12-19T16:29:44.901Z,28.90
2017-12-19T16:32:11.408Z,28.50
2017-12-19T16:34:37.738Z,27.97
2017-12-19T16:37:04.046Z,26.67
2017-12-19T16:39:30.335Z,28.30
2017-12-19T16:41:56.946Z,31.07
2017-12-19T16:44:23.263Z,22.40
2017-12-19T16:46:49.654Z,28.10
2017-12-19T16:49:17.056Z,22.60
2017-12-19T16:51:44.077Z,18.30
2017-12-19T16:54:10.850Z,21.73
2017-12-19T16:56:37.291Z,24.83
2017-12-19T16:59:03.914Z,22.67
2017-12-19T17:01:30.165Z,22.90
2017-12-19T17:03:56.737Z,24.33
2017-12-19T17:06:23.319Z,25.57
2017-12-19T17:08:49.891Z,20.73
2017-12-19T17:11:16.242Z,19.20
2017-12-19T17:13:42.643Z,19.63
2017-12-19T17:16:09.707Z,18.00
2017-12-19T17:18:36.006Z,15.60
2017-12-19T17:21:02.353Z,14.13
2017-12-19T17:23:28.636Z,15.60
2017-12-19T17:25:55.700Z,17.30
2017-12-19T17:28:22.015Z,13.13
2017-12-19T17:30:48.368Z,23.70
2017-12-19T17:33:14.759Z,18.63
2017-12-19T17:35:41.163Z,16.07
2017-12-19T17:38:07.426Z,16.40
2017-12-19T17:40:33.800Z,15.57
2017-12-19T17:43:00.073Z,16.80
2017-12-19T17:45:26.371Z,12.93
2017-12-19T17:47:52.646Z,10.20
2017-12-19T17:50:18.922Z,14.23
2017-12-19T17:52:45.316Z,16.33
2017-12-19T17:55:12.399Z,13.57
2017-12-19T17:57:38.767Z,14.80
2017-12-19T18:00:05.356Z,16.40
2017-12-19T18:02:31.692Z,9.53
2017-12-19T18:04:57.997Z,9.63
2017-12-19T18:07:25.075Z,8.37
2017-12-19T18:09:51.367Z,11.53
2017-12-19T18:12:17.613Z,12.27
2017-12-19T18:14:44.633Z,12.20
2017-12-19T18:17:11.010Z,10.00
2017-12-19T18:19:37.382Z,12.87
2017-12-19T18:22:03.701Z,7.00
2017-12-19T18:24:30.176Z,8.20
2017-12-19T18:26:56.520Z,7.83
2017-12-19T18:29:23.691Z,8.30
2017-12-19T18:31:50.220Z,9.17
2017-12-19T18:34:16.709Z,9.50
2017-12-19T18:36:43.076Z,13.20
2017-12-19T18:39:10.141Z,8.70
2017-12-19T18:41:36.784Z,12.50
2017-12-19T18:44:03.155Z,9.57
2017-12-19T18:46:29.444Z,9.27
2017-12-19T18:48:56.114Z,11.10
2017-12-19T18:51:22.458Z,11.53
2017-12-19T18:53:48.763Z,11.53
2017-12-19T18:56:15.365Z,11.60
2017-12-19T18:58:42.417Z,10.33
2017-12-19T19:01:09.461Z,9.90
2017-12-19T19:03:36.688Z,10.53
2017-12-19T19:06:03.001Z,10.00
2017-12-19T19:08:29.366Z,12.53
2017-12-19T19:10:56.537Z,9.40
2017-12-19T19:13:23.574Z,10.97
2017-12-19T19:15:50.692Z,10.60
2017-12-19T19:18:16.989Z,12.60
2017-12-19T19:20:43.412Z,10.40
2017-12-19T19:23:09.764Z,14.10
2017-12-19T19:25:36.050Z,12.27
2017-12-19T19:28:03.110Z,14.30
2017-12-19T19:30:29.486Z,12.67
2017-12-19T19:32:55.859Z,14.10
2017-12-19T19:35:24.155Z,13.13
2017-12-19T19:37:51.239Z,20.20
2017-12-19T19:40:17.611Z,13.23
2017-12-19T19:42:44.728Z,16.10
2017-12-19T19:45:11.211Z,18.50
2017-12-19T19:47:38.490Z,24.77
2017-12-19T19:50:04.851Z,29.37
2017-12-19T19:52:31.228Z,14.33
2017-12-19T19:54:58.465Z,17.70
2017-12-19T19:57:25.524Z,15.03
2017-12-19T19:59:52.622Z,18.83
2017-12-19T20:02:18.919Z,14.87
2017-12-19T20:04:45.287Z,13.90
2017-12-19T20:07:11.678Z,17.87
2017-12-19T20:09:38.078Z,12.90
2017-12-19T20:12:04.392Z,16.10
2017-12-19T20:14:30.749Z,18.63
2017-12-19T20:16:57.120Z,21.23
2017-12-19T20:19:23.528Z,18.70
2017-12-19T20:21:50.722Z,22.47
2017-12-19T20:24:17.174Z,16.20
2017-12-19T20:26:43.523Z,17.90
2017-12-19T20:29:09.956Z,19.10
2017-12-19T20:31:36.363Z,18.37
2017-12-19T20:34:02.758Z,18.77
2017-12-19T20:36:29.854Z,24.77
2017-12-19T20:38:56.254Z,19.43
2017-12-19T20:41:22.697Z,21.20
2017-12-19T20:43:49.153Z,16.70
2017-12-19T20:46:15.709Z,15.60
2017-12-19T20:48:42.088Z,21.83
2017-12-19T20:51:08.509Z,15.93
2017-12-19T20:53:34.939Z,20.20
2017-12-19T20:56:01.273Z,19.13
2017-12-19T20:58:28.367Z,14.37
2017-12-19T21:00:54.662Z,16.27
2017-12-19T21:03:21.020Z,12.97
2017-12-19T21:05:47.385Z,26.17
2017-12-19T21:08:13.642Z,15.50
2017-12-19T21:10:40.735Z,17.73
2017-12-19T21:13:06.994Z,15.53
2017-12-19T21:15:34.438Z,19.20
2017-12-19T21:18:00.789Z,17.83
2017-12-19T21:20:27.078Z,18.33
2017-12-19T21:22:53.384Z,22.97
2017-12-19T21:25:19.737Z,23.53
2017-12-19T21:27:46.104Z,17.97
2017-12-19T21:30:12.500Z,20.20
2017-12-19T21:32:38.830Z,23.00
2017-12-19T21:35:05.269Z,20.63
2017-12-19T21:37:31.637Z,21.67
2017-12-19T21:39:57.976Z,17.73
2017-12-19T21:42:25.077Z,23.03
2017-12-19T21:44:51.398Z,23.63
2017-12-19T21:47:17.685Z,26.17
2017-12-19T21:49:43.998Z,24.80
2017-12-19T21:52:10.268Z,27.87
2017-12-19T21:54:38.285Z,23.50
2017-12-19T21:57:04.548Z,22.53
2017-12-19T21:59:30.893Z,29.30
2017-12-19T22:01:58.827Z,26.53
2017-12-19T22:04:25.335Z,29.47
2017-12-19T22:06:51.694Z,33.17
2017-12-19T22:09:17.964Z,30.70
2017-12-19T22:11:45.070Z,24.60
2017-12-19T22:14:11.348Z,19.77
2017-12-19T22:16:38.380Z,25.60
2017-12-19T22:19:05.405Z,24.73
2017-12-19T22:21:31.737Z,27.63
2017-12-19T22:23:58.031Z,22.43
2017-12-19T22:26:24.356Z,25.53
2017-12-19T22:28:56.158Z,22.50
2017-12-19T22:31:16.927Z,23.83
2017-12-19T22:33:44.121Z,25.50
2017-12-19T22:36:11.205Z,22.03
2017-12-19T22:38:37.521Z,21.33
2017-12-19T22:41:04.595Z,25.30
2017-12-19T22:43:30.934Z,29.13
2017-12-19T22:45:58.012Z,23.63
2017-12-19T22:48:24.342Z,22.63
2017-12-19T22:50:51.344Z,24.87
2017-12-19T22:53:18.131Z,36.20
2017-12-19T22:55:44.523Z,29.10
2017-12-19T22:58:10.826Z,23.33
2017-12-19T23:00:37.874Z,31.67
2017-12-19T23:03:04.922Z,26.43
2017-12-19T23:05:32.032Z,26.27
2017-12-19T23:07:58.540Z,25.07
2017-12-19T23:10:25.087Z,23.77
2017-12-19T23:12:51.432Z,24.90
2017-12-19T23:15:17.701Z,23.93
2017-12-19T23:17:43.997Z,26.60
2017-12-19T23:20:10.414Z,32.77
2017-12-19T23:22:36.688Z,29.20
2017-12-19T23:25:03.804Z,26.03
2017-12-19T23:27:30.102Z,25.33
2017-12-19T23:29:56.362Z,28.13
2017-12-19T23:32:22.606Z,25.47
2017-12-19T23:34:48.936Z,30.67
2017-12-19T23:37:15.170Z,31.07
2017-12-19T23:39:48.432Z,27.93
2017-12-19T23:42:14.691Z,28.30
2017-12-19T23:44:40.944Z,30.17
2017-12-19T23:47:07.256Z,28.50
2017-12-19T23:49:33.771Z,28.50
2017-12-19T23:52:00.053Z,31.90
2017-12-19T23:54:28.113Z,29.47
2017-12-19T23:56:54.339Z,24.90
2017-12-19T23:59:20.649Z,32.53
